Minot, ND

9:55 AM CDT on October 30, 2014 (GMT -0500)
Minot Air Force Base | Change Station
CLOSE
Current Station
Airport
Location: Minot AFB,
Elevation: 1667 ft
Nearby Weather Stations

Elev 1667 ft 48.42 °N, 101.36 °W | Updated 57 minutes ago

Overcast
Overcast
32 °F
Feels Like 24 °F
N
10
Wind Variable Wind from North

Today
High -- | Low -- °F
--% Chance of Precip.
Yesterday
High -- | Low -- °F
Precip. -- in
8:27 AM 6:29 PM
Waxing Crescent, 44% visible
Pressure 30.38 in
Visibility 10.0 miles
Clouds Overcast 1000 ft
Windchill 24 °F
Dew Point 32 °F
Humidity 99%
Rainfall 0.00 in
Snow Depth Not available.
UV 0 out of 12
Pollen .10 out of 12
Air Quality Not available.
Flu Activity Not available.
METAR KMIB 301358Z AUTO 36009KT 300V030 10SM OVC010 00/00 A3030 RMK AO2 SLP287 T00030002 $

More Conditions Fewer Conditions

Pressure 30.38 in
Visibility 10.0 miles
Clouds Overcast 1000 ft
Windchill 24 °F
Dew Point 32 °F
Humidity 99%
Rainfall 0.00 in
Snow Depth Not available.
UV 0 out of 12
Pollen .10 out of 12
Air Quality Not available.
Flu Activity Not available.
METAR KMIB 301358Z AUTO 36009KT 300V030 10SM OVC010 00/00 A3030 RMK AO2 SLP287 T00030002 $

More Conditions Fewer Conditions

10-Day Weather Forecast

Almanac

Astronomy

Oct. 30, 2014 Rise Set
Actual Time
Civil Twilight
Nautical Twilight
Astronomical Twilight
Moon
Length of Visible Light
Length of Day
Tomorrow will be .
, % of the Moon is Illuminated

Today's Extremes

State Highs State Lows

Community

WunderPhotos

Upload Photos

1,766,379 photos uploaded!

WunderBlogs® & News

Nearby

Air Quality

  Air Quality AQ Index Pollutant
Not available.

Snow Depth

Station Depth Elevation

Earthquake Activity

City Distance Mag. Time & Date
Minimum magnitude displayed is 2.5.

Coastal Water Temperatures

Place Temperature

Nearby Weather Stations